Time;durP1;ratioP1;P1;durP2;ratioP2;P2;SDS_P1;SDS_P2;PMS_P1;PMS_P2;Temp;Humidity;BMP_temperature;BMP_pressure;BME280_temperature;BME280_humidity;BME280_pressure;Samples;Min_cycle;Max_cycle;Signal;HPM_P1;HPM_P2
2024/03/24 00:01:14;;;;;;;7.53;5.47;;;13.90;62.20;;;;;;4950784;28;113104;-53
2024/03/24 00:03:40;;;;;;;6.25;5.65;;;13.70;63.10;;;;;;4949478;28;114091;-51
2024/03/24 00:06:05;;;;;;;5.90;5.30;;;13.70;63.90;;;;;;4947884;28;114447;-53
2024/03/24 00:08:31;;;;;;;6.22;5.38;;;13.80;63.30;;;;;;4950356;28;112726;-52
2024/03/24 00:10:57;;;;;;;7.50;4.70;;;13.70;63.90;;;;;;4948875;28;112850;-52
2024/03/24 00:13:23;;;;;;;6.53;4.40;;;13.60;64.80;;;;;;4948359;28;114752;-53
2024/03/24 00:15:49;;;;;;;4.80;4.28;;;13.50;64.20;;;;;;4948976;28;112990;-52
2024/03/24 00:18:15;;;;;;;4.78;3.42;;;13.50;64.20;;;;;;4949568;28;112620;-52
2024/03/24 00:20:41;;;;;;;2.97;2.67;;;13.60;62.30;;;;;;4950374;28;112906;-53
2024/03/24 00:23:09;;;;;;;2.70;2.28;;;13.70;60.10;;;;;;4948463;28;114493;-52
2024/03/24 00:25:35;;;;;;;3.28;2.15;;;13.60;58.60;;;;;;4956565;28;113021;-51
2024/03/24 00:28:01;;;;;;;2.38;1.83;;;13.60;57.90;;;;;;4956090;28;112678;-52
2024/03/24 00:30:27;;;;;;;2.40;1.50;;;13.70;55.80;;;;;;4949763;28;112919;-53
2024/03/24 00:32:53;;;;;;;3.00;2.22;;;13.80;55.70;;;;;;4949258;28;114391;-54
2024/03/24 00:35:19;;;;;;;3.60;1.92;;;13.70;56.20;;;;;;4956760;28;113032;-53
2024/03/24 00:37:45;;;;;;;2.17;1.65;;;13.60;56.60;;;;;;4969138;28;114360;-53
2024/03/24 00:40:11;;;;;;;2.47;1.33;;;13.60;55.90;;;;;;4968993;28;113270;-52
2024/03/24 00:42:36;;;;;;;1.67;1.30;;;13.60;54.60;;;;;;4968257;28;113733;-53
2024/03/24 00:45:02;;;;;;;2.47;1.15;;;13.50;54.30;;;;;;4968349;28;112854;-51
2024/03/24 00:47:28;;;;;;;5.85;3.95;;;13.40;52.50;;;;;;4969024;28;112744;-55
2024/03/24 00:49:54;;;;;;;2.47;1.40;;;13.40;51.30;;;;;;4968621;28;112956;-56
2024/03/24 00:52:19;;;;;;;1.30;0.68;;;13.30;51.20;;;;;;4966187;28;114737;-54
2024/03/24 00:54:45;;;;;;;0.80;0.80;;;13.10;51.00;;;;;;4968290;28;112855;-54
2024/03/24 00:57:11;;;;;;;1.38;0.90;;;13.10;51.40;;;;;;4969049;28;112811;-53
2024/03/24 00:59:37;;;;;;;0.60;0.60;;;13.00;52.00;;;;;;4969014;28;112899;-55
2024/03/24 01:02:03;;;;;;;2.83;0.90;;;12.90;52.10;;;;;;4967969;28;113154;-54
2024/03/24 01:04:28;;;;;;;1.45;1.00;;;13.10;52.20;;;;;;4967642;28;113738;-54
2024/03/24 01:06:54;;;;;;;1.30;1.00;;;13.10;52.50;;;;;;4968930;28;112673;-54
2024/03/24 01:09:21;;;;;;;1.30;0.93;;;13.00;52.80;;;;;;4968829;28;112713;-53
2024/03/24 01:11:47;;;;;;;2.10;0.95;;;12.90;53.60;;;;;;4967726;28;113320;-55
2024/03/24 01:14:13;;;;;;;2.33;0.98;;;12.90;54.40;;;;;;4967414;28;112932;-54
2024/03/24 01:16:39;;;;;;;1.35;0.90;;;12.90;54.70;;;;;;4960318;28;112588;-55
2024/03/24 01:19:04;;;;;;;2.00;1.20;;;12.90;55.40;;;;;;4962079;28;112780;-54
2024/03/24 01:21:30;;;;;;;2.22;1.02;;;12.80;56.40;;;;;;4963121;28;114677;-56
2024/03/24 01:23:58;;;;;;;2.22;1.30;;;12.90;57.60;;;;;;4961292;28;112731;-54
2024/03/24 01:26:24;;;;;;;2.28;1.35;;;12.90;58.10;;;;;;4968255;28;112675;-55
2024/03/24 01:28:51;;;;;;;3.90;1.20;;;12.90;59.00;;;;;;4949167;28;112835;-56
2024/03/24 01:31:16;;;;;;;4.03;1.13;;;12.90;59.90;;;;;;4948163;28;113767;-55
2024/03/24 01:33:42;;;;;;;1.75;1.40;;;12.90;60.60;;;;;;4948078;28;112843;-53
2024/03/24 01:36:08;;;;;;;2.35;1.40;;;13.10;60.50;;;;;;4949289;28;112631;-55
2024/03/24 01:38:34;;;;;;;3.17;1.27;;;13.10;60.90;;;;;;4949246;28;112767;-55
2024/03/24 01:41:00;;;;;;;3.30;1.42;;;13.00;61.60;;;;;;4948114;28;113682;-55
2024/03/24 01:43:25;;;;;;;2.85;1.65;;;12.90;62.00;;;;;;4947950;28;113410;-54
2024/03/24 01:45:52;;;;;;;2.30;1.48;;;13.00;62.30;;;;;;4949344;28;112612;-54
2024/03/24 01:48:17;;;;;;;2.85;1.60;;;13.00;62.50;;;;;;4948932;28;112711;-54
2024/03/24 01:50:44;;;;;;;3.03;1.42;;;12.80;63.70;;;;;;4947990;28;113152;-54
2024/03/24 01:53:10;;;;;;;1.92;1.40;;;12.60;65.50;;;;;;4947655;28;113154;-54
2024/03/24 01:55:36;;;;;;;2.38;1.60;;;12.40;66.60;;;;;;4948781;28;112889;-54
2024/03/24 01:58:03;;;;;;;3.40;1.60;;;12.40;67.20;;;;;;4948801;28;113180;-54
2024/03/24 02:00:30;;;;;;;3.30;1.35;;;12.30;67.70;;;;;;4947697;28;113274;-55
2024/03/24 02:02:55;;;;;;;3.97;1.35;;;12.60;67.20;;;;;;4947780;28;113065;-55
2024/03/24 02:05:25;;;;;;;3.22;1.55;;;12.50;65.80;;;;;;4948655;28;112901;-54
2024/03/24 02:07:51;;;;;;;3.75;1.17;;;12.70;64.70;;;;;;4948587;28;112890;-54
2024/03/24 02:10:17;;;;;;;3.42;0.95;;;12.70;63.70;;;;;;4947895;28;113252;-54
2024/03/24 02:12:43;;;;;;;2.45;1.17;;;12.70;63.20;;;;;;4947451;28;113013;-55
2024/03/24 02:15:09;;;;;;;1.23;1.08;;;12.60;64.00;;;;;;4949296;28;112523;-54
2024/03/24 02:17:35;;;;;;;1.70;1.15;;;12.40;65.00;;;;;;4947532;28;113181;-54
2024/03/24 02:20:01;;;;;;;1.05;0.95;;;12.40;65.50;;;;;;4947682;28;113142;-56
2024/03/24 02:22:27;;;;;;;1.45;1.13;;;12.50;65.20;;;;;;4947266;28;113777;-55
2024/03/24 02:24:52;;;;;;;3.05;1.20;;;12.50;64.80;;;;;;4950131;28;112949;-53
2024/03/24 02:27:19;;;;;;;1.60;1.38;;;12.60;65.20;;;;;;4960683;28;112723;-55
2024/03/24 02:29:44;;;;;;;3.85;1.30;;;12.60;65.50;;;;;;4947404;28;113763;-54
2024/03/24 02:32:10;;;;;;;2.03;1.38;;;12.60;64.80;;;;;;4961029;28;114967;-53
2024/03/24 02:34:36;;;;;;;2.92;1.25;;;12.80;64.30;;;;;;4948411;28;112565;-54
2024/03/24 02:37:02;;;;;;;1.48;1.23;;;12.70;64.80;;;;;;4948450;28;112960;-54
2024/03/24 02:39:28;;;;;;;1.50;1.40;;;12.70;65.10;;;;;;4947079;28;114477;-56
2024/03/24 02:41:53;;;;;;;2.50;1.38;;;12.50;65.70;;;;;;4947045;28;112671;-56
2024/03/24 02:44:19;;;;;;;3.13;1.27;;;12.60;65.80;;;;;;4948154;28;112600;-54
2024/03/24 02:46:45;;;;;;;2.58;1.50;;;12.60;65.40;;;;;;4948060;28;112916;-54
2024/03/24 02:49:11;;;;;;;6.28;1.65;;;12.20;66.40;;;;;;4947086;28;114120;-54
2024/03/24 02:51:36;;;;;;;2.55;1.52;;;12.20;66.50;;;;;;4947262;28;113152;-54
2024/03/24 02:54:02;;;;;;;3.47;1.40;;;12.20;66.50;;;;;;4948054;28;112587;-55
2024/03/24 02:56:28;;;;;;;1.70;1.60;;;12.10;66.30;;;;;;4948487;28;112648;-54
2024/03/24 02:58:54;;;;;;;1.73;1.42;;;12.00;66.00;;;;;;4947125;28;114713;-55
2024/03/24 03:01:20;;;;;;;2.15;1.52;;;12.00;65.40;;;;;;4947239;28;113381;-54
2024/03/24 03:03:45;;;;;;;1.23;1.13;;;12.00;65.20;;;;;;4947953;28;112811;-53
2024/03/24 03:06:12;;;;;;;1.70;1.10;;;12.00;64.30;;;;;;4947992;28;112716;-57
2024/03/24 03:08:38;;;;;;;2.53;0.93;;;11.90;63.80;;;;;;4946879;28;113772;-53
2024/03/24 03:11:04;;;;;;;1.48;1.20;;;11.80;64.30;;;;;;4946858;28;113906;-54
2024/03/24 03:13:29;;;;;;;2.83;1.33;;;11.80;63.90;;;;;;4948629;28;112761;-53
2024/03/24 03:15:55;;;;;;;2.92;1.20;;;11.70;63.50;;;;;;4950196;28;112662;-55
2024/03/24 03:18:21;;;;;;;2.17;1.23;;;11.80;63.80;;;;;;4950018;28;113787;-54
2024/03/24 03:20:47;;;;;;;1.80;1.30;;;11.70;63.40;;;;;;4949706;28;115095;-55
2024/03/24 03:23:13;;;;;;;1.95;1.50;;;11.70;62.80;;;;;;4951595;28;112621;-53
2024/03/24 03:25:39;;;;;;;2.40;1.45;;;11.60;63.10;;;;;;4959095;28;113359;-54
2024/03/24 03:28:05;;;;;;;1.38;1.20;;;11.50;63.20;;;;;;4955654;28;113701;-54
2024/03/24 03:30:30;;;;;;;1.67;1.00;;;11.40;63.60;;;;;;4949764;28;112595;-54
2024/03/24 03:32:56;;;;;;;1.30;0.95;;;11.40;63.70;;;;;;4950813;28;112960;-54
2024/03/24 03:35:21;;;;;;;1.55;1.05;;;11.40;63.10;;;;;;4951026;28;112643;-54
2024/03/24 03:37:47;;;;;;;1.77;1.02;;;11.40;63.10;;;;;;4949855;28;113266;-54
2024/03/24 03:40:13;;;;;;;1.75;1.17;;;11.40;63.30;;;;;;4949751;28;112804;-53
2024/03/24 03:42:39;;;;;;;1.50;1.08;;;11.30;62.90;;;;;;4958683;28;113509;-53
2024/03/24 03:45:05;;;;;;;1.55;0.90;;;11.30;63.30;;;;;;4970277;28;112741;-53
2024/03/24 03:47:30;;;;;;;1.00;0.70;;;11.20;63.50;;;;;;4969514;28;113157;-55
2024/03/24 03:49:57;;;;;;;1.23;0.75;;;11.00;63.50;;;;;;4969240;28;112615;-53
2024/03/24 03:52:29;;;;;;;2.83;1.10;;;11.10;63.20;;;;;;4970104;28;112791;-55
2024/03/24 03:55:00;;;;;;;0.70;0.70;;;11.00;63.30;;;;;;4969950;28;112739;-52
2024/03/24 03:57:28;;;;;;;2.90;0.88;;;11.00;63.40;;;;;;4969107;28;114422;-55
2024/03/24 03:59:54;;;;;;;1.15;0.77;;;11.00;63.40;;;;;;4968773;28;113961;-53
2024/03/24 04:02:21;;;;;;;0.63;0.57;;;11.00;63.00;;;;;;4970287;28;112646;-53
2024/03/24 04:04:47;;;;;;;1.10;0.68;;;11.00;63.00;;;;;;4969867;28;113147;-52
2024/03/24 04:07:12;;;;;;;1.90;0.95;;;10.90;63.60;;;;;;4968762;28;114450;-55
2024/03/24 04:09:38;;;;;;;1.52;0.70;;;10.80;63.90;;;;;;4967458;28;113728;-53
2024/03/24 04:12:05;;;;;;;2.25;0.50;;;10.70;64.60;;;;;;4969936;28;112649;-53
2024/03/24 04:14:31;;;;;;;1.30;0.47;;;10.70;64.80;;;;;;4970323;28;112834;-54
2024/03/24 04:16:57;;;;;;;2.70;0.60;;;10.80;65.00;;;;;;4968675;28;113386;-57
2024/03/24 04:19:22;;;;;;;2.90;0.50;;;10.70;65.40;;;;;;4968363;28;112519;-54
2024/03/24 04:21:48;;;;;;;1.88;0.50;;;10.70;65.70;;;;;;4969557;28;112599;-52
2024/03/24 04:24:14;;;;;;;1.98;0.50;;;10.60;65.70;;;;;;4970107;28;112856;-56
2024/03/24 04:26:39;;;;;;;4.45;0.80;;;10.60;65.80;;;;;;4968607;28;113319;-53
2024/03/24 04:29:05;;;;;;;0.90;0.40;;;10.70;66.00;;;;;;4968499;28;112948;-52
2024/03/24 04:31:31;;;;;;;5.15;0.55;;;10.70;65.90;;;;;;4969836;28;112739;-52
2024/03/24 04:33:56;;;;;;;4.82;0.60;;;10.70;66.10;;;;;;4969649;28;113067;-53
2024/03/24 04:36:22;;;;;;;3.13;0.98;;;10.60;66.50;;;;;;4968746;28;113446;-53
2024/03/24 04:38:48;;;;;;;4.22;1.30;;;10.60;66.70;;;;;;4968277;28;113104;-53
2024/03/24 04:41:13;;;;;;;1.73;0.55;;;10.60;66.60;;;;;;4969690;28;112617;-54
2024/03/24 04:43:40;;;;;;;0.55;0.50;;;10.50;66.60;;;;;;4969025;28;113069;-53
2024/03/24 04:46:05;;;;;;;2.13;0.70;;;10.40;66.70;;;;;;4968428;28;113504;-52
2024/03/24 04:48:31;;;;;;;2.70;0.70;;;10.40;66.90;;;;;;4968323;28;112917;-52
2024/03/24 04:50:57;;;;;;;2.42;0.60;;;10.40;66.90;;;;;;4969114;28;112599;-53
2024/03/24 04:53:24;;;;;;;1.42;0.75;;;10.30;67.10;;;;;;4969627;28;114621;-53
2024/03/24 04:55:50;;;;;;;1.25;0.73;;;10.30;67.40;;;;;;4968116;28;113322;-52
2024/03/24 04:58:15;;;;;;;0.98;0.60;;;10.30;67.40;;;;;;4967919;28;113742;-54
2024/03/24 05:00:41;;;;;;;6.50;1.00;;;10.30;67.70;;;;;;4969119;28;112607;-52
2024/03/24 05:03:07;;;;;;;2.05;0.63;;;10.30;67.70;;;;;;4969179;28;113192;-53
2024/03/24 05:05:33;;;;;;;2.33;0.70;;;10.20;67.50;;;;;;4968077;28;113337;-52
2024/03/24 05:07:59;;;;;;;2.45;0.63;;;10.20;67.70;;;;;;4967738;28;112648;-52
2024/03/24 05:10:24;;;;;;;1.38;0.70;;;10.10;67.70;;;;;;4969254;28;112906;-53
2024/03/24 05:12:50;;;;;;;6.25;0.55;;;10.10;67.70;;;;;;4968951;28;112724;-53
2024/03/24 05:15:16;;;;;;;1.77;0.70;;;10.20;68.10;;;;;;4966958;28;114546;-55
2024/03/24 05:17:42;;;;;;;2.42;0.70;;;10.10;68.10;;;;;;4967546;28;113833;-52
2024/03/24 05:20:11;;;;;;;2.63;0.75;;;10.10;68.10;;;;;;4968775;28;112630;-53
2024/03/24 05:22:37;;;;;;;4.30;0.70;;;10.00;68.10;;;;;;4968973;28;113144;-55
2024/03/24 05:25:06;;;;;;;4.90;1.30;;;10.10;68.30;;;;;;4967622;28;114335;-52
2024/03/24 05:27:32;;;;;;;1.80;0.95;;;10.10;67.80;;;;;;4967576;28;113922;-55
2024/03/24 05:29:58;;;;;;;1.70;0.90;;;10.10;67.90;;;;;;4968594;28;113069;-52
2024/03/24 05:32:23;;;;;;;5.18;2.20;;;9.90;68.00;;;;;;4968513;28;112754;-52
2024/03/24 05:34:49;;;;;;;4.13;1.05;;;10.10;67.70;;;;;;4967593;28;114253;-54
2024/03/24 05:37:14;;;;;;;1.75;0.85;;;10.20;66.90;;;;;;4967289;28;112735;-53
2024/03/24 05:39:41;;;;;;;2.33;1.00;;;10.30;66.50;;;;;;4968472;28;112576;-54
2024/03/24 05:42:07;;;;;;;5.55;1.90;;;10.30;66.00;;;;;;4968597;28;112719;-52
2024/03/24 05:44:32;;;;;;;5.72;2.92;;;10.10;66.30;;;;;;4967190;28;114540;-52
2024/03/24 05:46:58;;;;;;;3.00;2.40;;;10.10;66.50;;;;;;4967289;28;113565;-54
2024/03/24 05:49:24;;;;;;;2.75;1.73;;;10.20;66.60;;;;;;4968841;28;112825;-52
2024/03/24 05:51:50;;;;;;;3.30;0.93;;;10.00;66.70;;;;;;4967007;28;113176;-52
2024/03/24 05:54:16;;;;;;;2.42;0.60;;;9.90;67.30;;;;;;4967134;28;113241;-52
2024/03/24 05:56:42;;;;;;;1.25;0.55;;;10.10;66.80;;;;;;4967149;28;113308;-53
2024/03/24 05:59:07;;;;;;;4.88;0.70;;;10.10;66.70;;;;;;4968074;28;112888;-53
2024/03/24 06:01:33;;;;;;;2.25;0.60;;;10.00;67.10;;;;;;4968350;28;112930;-53
2024/03/24 06:03:59;;;;;;;2.35;0.47;;;10.10;66.60;;;;;;4967243;28;114395;-52
2024/03/24 06:06:24;;;;;;;3.22;0.45;;;9.90;66.60;;;;;;4967325;28;112843;-52
2024/03/24 06:08:51;;;;;;;2.60;0.77;;;9.80;67.70;;;;;;4968092;28;112509;-52
2024/03/24 06:11:16;;;;;;;1.10;0.50;;;10.00;67.20;;;;;;4968308;28;112763;-56
2024/03/24 06:13:42;;;;;;;2.88;1.05;;;10.30;66.10;;;;;;4967751;28;113243;-52
2024/03/24 06:16:08;;;;;;;2.72;1.30;;;10.30;65.50;;;;;;4967243;28;112723;-52
2024/03/24 06:18:33;;;;;;;1.92;1.00;;;10.30;65.80;;;;;;4967891;28;112960;-53
2024/03/24 06:21:00;;;;;;;5.13;1.05;;;10.40;65.70;;;;;;4968073;28;113036;-52
2024/03/24 06:23:26;;;;;;;6.28;1.17;;;10.40;65.60;;;;;;4966569;28;114461;-54
2024/03/24 06:25:51;;;;;;;2.97;1.08;;;10.40;65.30;;;;;;4966972;28;113681;-52
2024/03/24 06:28:17;;;;;;;4.10;2.22;;;10.50;65.40;;;;;;4967706;28;112741;-52
2024/03/24 06:30:43;;;;;;;3.50;1.80;;;10.60;64.30;;;;;;4968522;28;113113;-55
2024/03/24 06:33:09;;;;;;;2.40;1.50;;;10.70;63.60;;;;;;4967056;28;113187;-52
2024/03/24 06:35:35;;;;;;;4.95;1.77;;;10.80;63.60;;;;;;4966819;28;113644;-52
2024/03/24 06:38:00;;;;;;;7.07;2.92;;;10.80;63.10;;;;;;4968135;28;112644;-54
2024/03/24 06:40:26;;;;;;;5.47;2.95;;;10.80;62.70;;;;;;4967638;28;113073;-53
2024/03/24 06:43:02;;;;;;;7.85;3.50;;;11.00;62.60;;;;;;4966904;28;113242;-52
2024/03/24 06:45:32;;;;;;;8.35;3.53;;;11.10;62.00;;;;;;4966368;28;114120;-52
2024/03/24 06:48:05;;;;;;;3.15;2.00;;;11.40;61.60;;;;;;4967633;28;112937;-52
2024/03/24 06:50:33;;;;;;;5.72;2.17;;;11.30;61.60;;;;;;4969087;28;112919;-52
2024/03/24 06:52:59;;;;;;;3.42;1.50;;;11.40;61.60;;;;;;4956563;28;113390;-52
2024/03/24 06:55:26;;;;;;;3.17;0.70;;;11.60;61.40;;;;;;4970025;28;113788;-52
2024/03/24 06:57:52;;;;;;;1.95;0.70;;;11.80;61.00;;;;;;4970963;28;114222;-53
2024/03/24 07:00:18;;;;;;;2.45;0.80;;;11.80;60.80;;;;;;4970953;28;112752;-52
2024/03/24 07:02:48;;;;;;;2.90;0.90;;;11.80;60.70;;;;;;4970117;28;113344;-52
2024/03/24 07:05:14;;;;;;;3.22;0.90;;;11.90;60.40;;;;;;4969914;28;113861;-53
2024/03/24 07:07:41;;;;;;;4.30;0.70;;;12.00;60.10;;;;;;4970927;28;112579;-55
2024/03/24 07:10:07;;;;;;;3.42;0.50;;;12.00;59.40;;;;;;4970626;28;112754;-53
2024/03/24 07:12:36;;;;;;;3.10;0.95;;;12.10;59.60;;;;;;4969927;28;114518;-52
2024/03/24 07:15:03;;;;;;;1.02;0.50;;;12.10;59.10;;;;;;4970075;28;112638;-55
2024/03/24 07:17:28;;;;;;;1.15;0.50;;;12.10;58.00;;;;;;4970671;28;112465;-53
2024/03/24 07:19:54;;;;;;;2.22;0.60;;;12.30;58.40;;;;;;4970852;28;112775;-53
2024/03/24 07:22:20;;;;;;;1.05;0.45;;;12.50;57.80;;;;;;4969736;28;113285;-53
2024/03/24 07:24:45;;;;;;;1.55;0.30;;;12.50;55.60;;;;;;4969570;28;112630;-55
2024/03/24 07:27:12;;;;;;;0.55;0.25;;;12.50;55.50;;;;;;4970961;28;112617;-54
2024/03/24 07:29:39;;;;;;;2.08;0.40;;;12.60;54.90;;;;;;4970602;28;114008;-52
2024/03/24 07:32:05;;;;;;;1.13;0.30;;;12.60;54.30;;;;;;4969516;28;113357;-54
2024/03/24 07:34:31;;;;;;;0.85;0.40;;;12.80;54.40;;;;;;4969088;28;114444;-52
2024/03/24 07:36:56;;;;;;;0.90;0.60;;;12.90;53.80;;;;;;4970362;28;113067;-53
2024/03/24 07:39:25;;;;;;;1.98;0.93;;;13.00;53.10;;;;;;4970719;28;112750;-53
2024/03/24 07:41:51;;;;;;;0.70;0.60;;;13.10;52.20;;;;;;4969036;28;115382;-54
2024/03/24 07:44:19;;;;;;;0.55;0.30;;;13.30;52.10;;;;;;4969169;28;113758;-53
2024/03/24 07:46:45;;;;;;;0.98;0.65;;;13.40;51.30;;;;;;4969997;28;112759;-56
2024/03/24 07:49:11;;;;;;;1.48;0.70;;;13.40;50.70;;;;;;4970117;28;113075;-53
2024/03/24 07:51:37;;;;;;;1.38;0.40;;;13.40;50.50;;;;;;4968960;28;114388;-53
2024/03/24 07:54:03;;;;;;;0.40;0.30;;;13.50;50.20;;;;;;4969259;28;112777;-54
2024/03/24 07:56:29;;;;;;;0.20;0.20;;;13.70;49.90;;;;;;4969618;28;112830;-53
2024/03/24 07:58:54;;;;;;;1.08;0.20;;;13.90;49.20;;;;;;4969587;28;112790;-56
2024/03/24 08:01:20;;;;;;;1.10;0.40;;;14.00;49.20;;;;;;4968414;28;113205;-53
2024/03/24 08:03:46;;;;;;;0.65;0.20;;;13.90;47.40;;;;;;4968806;28;113058;-53
2024/03/24 08:06:12;;;;;;;0.98;0.20;;;14.00;48.80;;;;;;4969877;28;112712;-53
2024/03/24 08:08:38;;;;;;;0.45;0.20;;;14.10;49.50;;;;;;4969851;28;112813;-53
2024/03/24 08:11:03;;;;;;;0.68;0.30;;;14.30;48.00;;;;;;4968632;28;113776;-54
2024/03/24 08:13:29;;;;;;;0.63;0.20;;;14.50;48.50;;;;;;4968605;28;112726;-52
2024/03/24 08:15:55;;;;;;;2.08;0.40;;;14.60;47.60;;;;;;4970193;28;112646;-55
2024/03/24 08:18:20;;;;;;;1.05;0.38;;;14.70;47.60;;;;;;4969101;28;112639;-53
2024/03/24 08:20:47;;;;;;;6.65;0.50;;;14.80;47.40;;;;;;4968390;28;114739;-53
2024/03/24 08:23:14;;;;;;;0.80;0.40;;;14.90;46.20;;;;;;4968050;28;113720;-54
2024/03/24 08:25:40;;;;;;;0.55;0.50;;;14.70;46.00;;;;;;4969661;28;112742;-54
2024/03/24 08:28:06;;;;;;;1.05;0.77;;;14.70;46.20;;;;;;4964918;28;112759;-55
2024/03/24 08:30:32;;;;;;;0.93;0.55;;;14.90;47.80;;;;;;4967779;28;114517;-53
2024/03/24 08:32:58;;;;;;;0.80;0.50;;;15.10;46.50;;;;;;4968382;28;112633;-54
2024/03/24 08:35:24;;;;;;;3.10;0.50;;;15.30;45.50;;;;;;4969190;28;112753;-53
2024/03/24 08:37:51;;;;;;;0.55;0.40;;;15.20;45.00;;;;;;4969554;28;113051;-54
2024/03/24 08:40:16;;;;;;;0.43;0.40;;;15.30;45.60;;;;;;4968321;28;113289;-55
2024/03/24 08:42:42;;;;;;;1.92;0.50;;;15.50;44.00;;;;;;4968047;28;114073;-54
2024/03/24 08:45:08;;;;;;;1.52;0.43;;;15.40;44.90;;;;;;4967967;28;112731;-53
2024/03/24 08:47:34;;;;;;;1.00;0.43;;;15.70;44.80;;;;;;4965510;28;112737;-53
2024/03/24 08:49:59;;;;;;;0.35;0.30;;;15.80;44.10;;;;;;4968210;28;113311;-53
2024/03/24 08:52:25;;;;;;;2.13;0.60;;;16.00;43.80;;;;;;4967976;28;113366;-54
2024/03/24 08:54:51;;;;;;;0.40;0.30;;;16.10;43.80;;;;;;4967582;28;112584;-53
2024/03/24 08:57:17;;;;;;;2.22;0.70;;;16.00;43.60;;;;;;4968948;28;113154;-54
2024/03/24 08:59:42;;;;;;;0.40;0.40;;;16.30;43.40;;;;;;4967339;28;114394;-53
2024/03/24 09:02:08;;;;;;;1.10;0.40;;;16.50;42.10;;;;;;4967786;28;113618;-53
2024/03/24 09:04:33;;;;;;;0.52;0.40;;;16.60;42.50;;;;;;4968965;28;112830;-55
2024/03/24 09:06:59;;;;;;;0.95;0.47;;;16.60;43.70;;;;;;4969014;28;113255;-53
2024/03/24 09:09:25;;;;;;;1.35;0.40;;;17.00;42.60;;;;;;4967423;28;113771;-55
2024/03/24 09:11:50;;;;;;;2.67;0.50;;;17.10;42.50;;;;;;4966841;28;114027;-54
2024/03/24 09:14:16;;;;;;;0.80;0.43;;;17.40;42.20;;;;;;4968363;28;112857;-54
2024/03/24 09:16:42;;;;;;;1.55;0.45;;;17.60;40.60;;;;;;4959935;28;114541;-54
2024/03/24 09:19:07;;;;;;;0.57;0.47;;;17.60;41.30;;;;;;4967226;28;113235;-53
2024/03/24 09:21:33;;;;;;;1.85;0.60;;;17.80;41.40;;;;;;4967313;28;112671;-54
2024/03/24 09:23:59;;;;;;;0.77;0.70;;;17.90;41.50;;;;;;4968577;28;112811;-53
2024/03/24 09:26:25;;;;;;;0.63;0.50;;;17.80;39.70;;;;;;4968741;28;112842;-53
2024/03/24 09:28:50;;;;;;;1.73;0.70;;;17.80;40.50;;;;;;4967400;28;113734;-52
2024/03/24 09:31:16;;;;;;;3.08;0.70;;;17.90;40.80;;;;;;4966275;28;114365;-53
2024/03/24 09:33:42;;;;;;;0.30;0.30;;;18.10;41.40;;;;;;4968281;28;112661;-53
2024/03/24 09:36:08;;;;;;;2.92;0.70;;;18.30;40.30;;;;;;4968175;28;112830;-54
2024/03/24 09:38:33;;;;;;;0.63;0.60;;;18.30;39.50;;;;;;4967343;28;114478;-55
2024/03/24 09:40:59;;;;;;;1.05;0.60;;;18.40;39.90;;;;;;4967255;28;113758;-55
2024/03/24 09:43:25;;;;;;;0.80;0.60;;;18.40;39.40;;;;;;4968304;28;112650;-55
2024/03/24 09:45:50;;;;;;;1.00;0.68;;;18.60;36.90;;;;;;4968916;28;112670;-56
2024/03/24 09:48:16;;;;;;;1.08;0.55;;;18.70;37.50;;;;;;4967349;28;114620;-54
2024/03/24 09:50:43;;;;;;;2.17;0.93;;;18.30;36.80;;;;;;4967058;28;114005;-55
2024/03/24 09:53:09;;;;;;;1.45;0.68;;;18.40;39.70;;;;;;4968984;28;112604;-54
2024/03/24 09:55:36;;;;;;;2.33;0.70;;;19.10;39.10;;;;;;4968476;28;112950;-55
2024/03/24 09:58:02;;;;;;;2.40;0.68;;;19.50;37.80;;;;;;4965588;28;116820;-55
2024/03/24 10:00:28;;;;;;;2.05;0.50;;;20.00;37.40;;;;;;4967253;28;114160;-55
2024/03/24 10:02:54;;;;;;;0.60;0.50;;;20.30;36.10;;;;;;4968377;28;112930;-55
2024/03/24 10:05:21;;;;;;;0.75;0.50;;;20.30;36.60;;;;;;4968702;28;112744;-55
2024/03/24 10:07:47;;;;;;;0.98;0.50;;;20.40;36.00;;;;;;4967349;28;114082;-55
2024/03/24 10:10:14;;;;;;;1.67;0.60;;;20.70;35.80;;;;;;4967226;28;113778;-56
2024/03/24 10:13:03;;;;;;;4.68;1.05;;;21.10;35.40;;;;;;4966723;28;113061;-56
2024/03/24 10:15:29;;;;;;;2.42;0.70;;;21.40;34.10;;;;;;4968346;28;112761;-56
2024/03/24 10:18:11;;;;;;;0.70;0.60;;;21.50;34.20;;;;;;4966863;28;113148;-56
2024/03/24 10:20:38;;;;;;;0.73;0.52;;;21.00;35.10;;;;;;4966986;28;112658;-57
2024/03/24 10:23:04;;;;;;;0.75;0.52;;;20.90;34.60;;;;;;4967680;28;112636;-56
2024/03/24 10:25:32;;;;;;;1.00;0.70;;;21.50;34.00;;;;;;4970990;28;112683;-55
2024/03/24 10:27:59;;;;;;;1.85;0.50;;;22.30;33.20;;;;;;4969216;28;113303;-56
2024/03/24 10:30:25;;;;;;;0.93;0.50;;;24.50;30.60;;;;;;4970260;28;112950;-56
2024/03/24 10:32:52;;;;;;;0.70;0.50;;;23.60;29.90;;;;;;4970985;28;112641;-56
2024/03/24 10:35:19;;;;;;;0.82;0.50;;;23.40;31.10;;;;;;4971114;28;112804;-56
2024/03/24 10:37:44;;;;;;;1.25;0.60;;;26.80;27.90;;;;;;4969993;28;114513;-56
2024/03/24 10:40:14;;;;;;;1.00;0.73;;;29.70;24.90;;;;;;4970078;28;113859;-55
2024/03/24 10:42:53;;;;;;;1.67;0.80;;;33.50;21.70;;;;;;4971379;28;112876;-56
2024/03/24 10:45:24;;;;;;;1.55;0.57;;;35.40;20.30;;;;;;4971207;28;112997;-54
2024/03/24 10:48:04;;;;;;;1.00;0.70;;;37.20;19.00;;;;;;4970117;28;114670;-54
2024/03/24 10:50:30;;;;;;;2.10;1.70;;;38.10;18.00;;;;;;4969606;28;113945;-55
2024/03/24 10:52:57;;;;;;;1.60;1.30;;;38.40;18.00;;;;;;4970892;28;112680;-54
2024/03/24 10:55:23;;;;;;;1.02;0.90;;;39.90;17.20;;;;;;4971061;28;112879;-54
2024/03/24 10:57:51;;;;;;;1.13;1.02;;;40.10;17.50;;;;;;4970018;28;113965;-54
2024/03/24 11:00:16;;;;;;;1.88;1.35;;;40.40;17.10;;;;;;4969796;28;113957;-54
2024/03/24 11:02:43;;;;;;;1.58;1.10;;;39.30;17.10;;;;;;4970524;28;113086;-54
2024/03/24 11:05:10;;;;;;;1.13;1.00;;;39.00;17.50;;;;;;4971204;28;112830;-54
2024/03/24 11:07:39;;;;;;;1.33;1.10;;;39.00;18.20;;;;;;4969993;28;113729;-54
2024/03/24 11:10:05;;;;;;;1.55;1.00;;;40.30;17.10;;;;;;4969909;28;112918;-54
2024/03/24 11:12:34;;;;;;;1.10;1.00;;;42.40;16.30;;;;;;4970776;28;112916;-55
2024/03/24 11:14:59;;;;;;;1.75;1.10;;;42.80;16.00;;;;;;4971078;28;112794;-55
2024/03/24 11:17:26;;;;;;;2.30;1.15;;;43.30;15.70;;;;;;4969324;28;114614;-54
2024/03/24 11:19:52;;;;;;;1.85;1.00;;;44.20;15.10;;;;;;4969474;28;113746;-54
2024/03/24 11:22:42;;;;;;;3.60;1.30;;;44.30;15.20;;;;;;4970657;28;112802;-55
2024/03/24 11:25:08;;;;;;;6.47;5.88;;;44.00;15.00;;;;;;4970496;28;113146;-55
2024/03/24 11:27:43;;;;;;;2.70;2.30;;;43.10;15.60;;;;;;4969787;28;113173;-55
2024/03/24 11:30:15;;;;;;;1.13;1.10;;;44.60;15.20;;;;;;4969200;28;113991;-54
2024/03/24 11:32:55;;;;;;;1.20;1.15;;;43.70;15.10;;;;;;4970603;28;112738;-55
2024/03/24 11:35:25;;;;;;;8.00;7.25;;;39.30;17.10;;;;;;4969642;28;112751;-54
2024/03/24 11:37:52;;;;;;;2.20;2.00;;;39.90;17.40;;;;;;4969245;28;114788;-55
2024/03/24 11:40:23;;;;;;;1.55;1.45;;;42.90;15.80;;;;;;4968359;28;113710;-54
2024/03/24 11:42:53;;;;;;;6.93;6.43;;;44.90;15.00;;;;;;4970440;28;112631;-55
2024/03/24 11:45:29;;;;;;;1.77;1.60;;;45.00;14.80;;;;;;4970490;28;112947;-55
2024/03/24 11:48:30;;;;;;;2.33;1.30;;;45.30;14.70;;;;;;4969467;28;113137;-55
2024/03/24 11:51:01;;;;;;;1.33;1.10;;;45.40;14.60;;;;;;4969016;28;113735;-55
2024/03/24 11:53:29;;;;;;;3.17;1.23;;;44.30;15.10;;;;;;4970182;28;112626;-55
2024/03/24 11:55:55;;;;;;;2.13;1.35;;;45.40;14.80;;;;;;4970035;28;112725;-55
2024/03/24 11:58:22;;;;;;;2.10;1.55;;;45.10;14.80;;;;;;4969391;28;113251;-55
2024/03/24 12:00:49;;;;;;;3.65;1.60;;;42.50;15.40;;;;;;4968580;28;113707;-55
2024/03/24 12:03:16;;;;;;;1.48;1.33;;;41.50;16.40;;;;;;4969903;28;112803;-55
2024/03/24 12:05:42;;;;;;;3.10;1.40;;;39.60;17.20;;;;;;4969789;28;112840;-55
2024/03/24 12:08:09;;;;;;;1.58;1.33;;;41.60;16.30;;;;;;4968903;28;113319;-55
2024/03/24 12:10:35;;;;;;;1.55;1.40;;;43.30;15.40;;;;;;4968783;28;114064;-55
2024/03/24 12:13:02;;;;;;;2.03;1.20;;;44.60;15.10;;;;;;4969782;28;112876;-55
2024/03/24 12:15:28;;;;;;;1.23;1.20;;;44.60;15.10;;;;;;4970304;28;112682;-54
2024/03/24 12:17:53;;;;;;;2.45;1.30;;;44.70;14.80;;;;;;4968244;28;114767;-53
2024/03/24 12:20:19;;;;;;;1.80;1.50;;;45.60;15.10;;;;;;4968814;28;113161;-53
2024/03/24 12:22:44;;;;;;;3.70;1.70;;;46.20;14.40;;;;;;4970109;28;113475;-53
2024/03/24 12:25:13;;;;;;;2.35;1.40;;;44.40;15.40;;;;;;4969643;28;112791;-54
2024/03/24 12:27:38;;;;;;;2.20;1.35;;;46.20;14.50;;;;;;4968547;28;113421;-54
2024/03/24 12:30:05;;;;;;;1.50;1.40;;;45.40;14.60;;;;;;4968147;28;112772;-53
2024/03/24 12:32:31;;;;;;;1.50;1.40;;;42.70;15.60;;;;;;4969710;28;112871;-53
2024/03/24 12:34:58;;;;;;;1.60;1.50;;;37.00;18.60;;;;;;4969368;28;112691;-53